sensor_id;sensor_type;location;lat;lon;timestamp;temperature;humidity
9730;DHT22;4904;49.152;11.004;2022-09-25T00:02:15;13.60;99.90
9730;DHT22;4904;49.152;11.004;2022-09-25T00:04:42;13.70;99.90
9730;DHT22;4904;49.152;11.004;2022-09-25T00:07:09;13.70;99.90
9730;DHT22;4904;49.152;11.004;2022-09-25T00:09:36;13.60;99.90
9730;DHT22;4904;49.152;11.004;2022-09-25T00:12:02;13.60;99.90
9730;DHT22;4904;49.152;11.004;2022-09-25T00:14:31;13.60;99.90
9730;DHT22;4904;49.152;11.004;2022-09-25T00:16:57;13.50;99.90
9730;DHT22;4904;49.152;11.004;2022-09-25T00:19:24;13.30;99.90
9730;DHT22;4904;49.152;11.004;2022-09-25T00:22:08;13.20;99.90
9730;DHT22;4904;49.152;11.004;2022-09-25T00:24:35;13.30;99.90
9730;DHT22;4904;49.152;11.004;2022-09-25T00:27:02;13.40;99.90
9730;DHT22;4904;49.152;11.004;2022-09-25T00:29:31;13.50;99.90
9730;DHT22;4904;49.152;11.004;2022-09-25T00:31:58;13.50;99.90
9730;DHT22;4904;49.152;11.004;2022-09-25T00:34:25;13.60;99.90
9730;DHT22;4904;49.152;11.004;2022-09-25T00:36:52;13.60;99.90
9730;DHT22;4904;49.152;11.004;2022-09-25T00:39:19;13.60;99.90
9730;DHT22;4904;49.152;11.004;2022-09-25T00:41:46;13.60;99.90
9730;DHT22;4904;49.152;11.004;2022-09-25T00:44:52;13.50;99.90
9730;DHT22;4904;49.152;11.004;2022-09-25T00:47:25;13.30;99.90
9730;DHT22;4904;49.152;11.004;2022-09-25T00:49:54;13.30;99.90
9730;DHT22;4904;49.152;11.004;2022-09-25T00:52:23;13.30;99.90
9730;DHT22;4904;49.152;11.004;2022-09-25T00:54:54;13.20;99.90
9730;DHT22;4904;49.152;11.004;2022-09-25T00:57:24;13.10;99.90
9730;DHT22;4904;49.152;11.004;2022-09-25T00:59:56;13.10;99.90
9730;DHT22;4904;49.152;11.004;2022-09-25T01:02:27;13.20;99.90
9730;DHT22;4904;49.152;11.004;2022-09-25T01:04:56;13.20;99.90
9730;DHT22;4904;49.152;11.004;2022-09-25T01:07:24;13.30;99.90
9730;DHT22;4904;49.152;11.004;2022-09-25T01:09:51;13.30;99.90
9730;DHT22;4904;49.152;11.004;2022-09-25T01:12:19;13.40;99.90
9730;DHT22;4904;49.152;11.004;2022-09-25T01:14:46;13.20;99.90
9730;DHT22;4904;49.152;11.004;2022-09-25T01:17:18;13.20;99.90
9730;DHT22;4904;49.152;11.004;2022-09-25T01:19:58;13.20;99.90
9730;DHT22;4904;49.152;11.004;2022-09-25T01:22:39;13.20;99.90
9730;DHT22;4904;49.152;11.004;2022-09-25T01:25:14;13.20;99.90
9730;DHT22;4904;49.152;11.004;2022-09-25T01:27:54;13.20;99.90
9730;DHT22;4904;49.152;11.004;2022-09-25T01:30:24;13.20;99.90
9730;DHT22;4904;49.152;11.004;2022-09-25T01:32:57;13.20;99.90
9730;DHT22;4904;49.152;11.004;2022-09-25T01:35:38;13.10;99.90
9730;DHT22;4904;49.152;11.004;2022-09-25T01:38:15;13.20;99.90
9730;DHT22;4904;49.152;11.004;2022-09-25T01:40:51;13.10;99.90
9730;DHT22;4904;49.152;11.004;2022-09-25T01:43:24;13.10;99.90
9730;DHT22;4904;49.152;11.004;2022-09-25T01:45:57;13.00;99.90
9730;DHT22;4904;49.152;11.004;2022-09-25T01:48:27;13.00;99.90
9730;DHT22;4904;49.152;11.004;2022-09-25T01:50:58;13.10;99.90
9730;DHT22;4904;49.152;11.004;2022-09-25T01:53:28;13.10;99.90
9730;DHT22;4904;49.152;11.004;2022-09-25T01:56:00;13.10;99.90
9730;DHT22;4904;49.152;11.004;2022-09-25T01:58:31;13.20;99.90
9730;DHT22;4904;49.152;11.004;2022-09-25T02:01:04;13.20;99.90
9730;DHT22;4904;49.152;11.004;2022-09-25T02:03:37;13.10;99.90
9730;DHT22;4904;49.152;11.004;2022-09-25T02:06:06;13.20;99.90
9730;DHT22;4904;49.152;11.004;2022-09-25T02:08:36;13.00;99.90
9730;DHT22;4904;49.152;11.004;2022-09-25T02:11:06;13.00;99.90
9730;DHT22;4904;49.152;11.004;2022-09-25T02:13:38;13.10;99.90
9730;DHT22;4904;49.152;11.004;2022-09-25T02:16:11;13.10;99.90
9730;DHT22;4904;49.152;11.004;2022-09-25T02:18:38;13.10;99.90
9730;DHT22;4904;49.152;11.004;2022-09-25T02:21:27;13.00;99.90
9730;DHT22;4904;49.152;11.004;2022-09-25T02:24:00;13.10;99.90
9730;DHT22;4904;49.152;11.004;2022-09-25T02:26:31;13.10;99.90
9730;DHT22;4904;49.152;11.004;2022-09-25T02:28:59;13.00;99.90
9730;DHT22;4904;49.152;11.004;2022-09-25T02:31:31;13.10;99.90
9730;DHT22;4904;49.152;11.004;2022-09-25T02:34:01;13.20;99.90
9730;DHT22;4904;49.152;11.004;2022-09-25T02:36:28;13.20;99.90
9730;DHT22;4904;49.152;11.004;2022-09-25T02:38:56;13.20;99.90
9730;DHT22;4904;49.152;11.004;2022-09-25T02:41:50;13.20;99.90
9730;DHT22;4904;49.152;11.004;2022-09-25T02:44:30;13.20;99.90
9730;DHT22;4904;49.152;11.004;2022-09-25T02:47:10;13.20;99.90
9730;DHT22;4904;49.152;11.004;2022-09-25T02:49:46;13.20;99.90
9730;DHT22;4904;49.152;11.004;2022-09-25T02:52:21;13.20;99.90
9730;DHT22;4904;49.152;11.004;2022-09-25T02:54:55;13.00;99.90
9730;DHT22;4904;49.152;11.004;2022-09-25T02:57:30;13.00;99.90
9730;DHT22;4904;49.152;11.004;2022-09-25T03:00:05;13.10;99.90
9730;DHT22;4904;49.152;11.004;2022-09-25T03:02:35;13.00;99.90
9730;DHT22;4904;49.152;11.004;2022-09-25T03:05:04;13.00;99.90
9730;DHT22;4904;49.152;11.004;2022-09-25T03:07:32;12.80;99.90
9730;DHT22;4904;49.152;11.004;2022-09-25T03:10:19;12.80;99.90
9730;DHT22;4904;49.152;11.004;2022-09-25T03:12:46;12.70;99.90
9730;DHT22;4904;49.152;11.004;2022-09-25T03:15:13;12.80;99.90
9730;DHT22;4904;49.152;11.004;2022-09-25T03:17:41;12.70;99.90
9730;DHT22;4904;49.152;11.004;2022-09-25T03:20:09;12.70;99.90
9730;DHT22;4904;49.152;11.004;2022-09-25T03:22:35;12.80;99.90
9730;DHT22;4904;49.152;11.004;2022-09-25T03:25:03;12.70;99.90
9730;DHT22;4904;49.152;11.004;2022-09-25T03:27:31;12.70;99.90
9730;DHT22;4904;49.152;11.004;2022-09-25T03:29:57;12.70;99.90
9730;DHT22;4904;49.152;11.004;2022-09-25T03:32:24;12.80;99.90
9730;DHT22;4904;49.152;11.004;2022-09-25T03:34:52;12.70;99.90
9730;DHT22;4904;49.152;11.004;2022-09-25T03:37:19;12.90;99.90
9730;DHT22;4904;49.152;11.004;2022-09-25T03:39:46;12.90;99.90
9730;DHT22;4904;49.152;11.004;2022-09-25T03:42:13;12.80;99.90
9730;DHT22;4904;49.152;11.004;2022-09-25T03:44:39;12.60;99.90
9730;DHT22;4904;49.152;11.004;2022-09-25T03:47:07;12.60;99.90
9730;DHT22;4904;49.152;11.004;2022-09-25T03:49:34;12.70;99.90
9730;DHT22;4904;49.152;11.004;2022-09-25T03:52:02;12.70;99.90
9730;DHT22;4904;49.152;11.004;2022-09-25T03:54:29;12.80;99.90
9730;DHT22;4904;49.152;11.004;2022-09-25T03:56:56;12.80;99.90
9730;DHT22;4904;49.152;11.004;2022-09-25T03:59:23;12.90;99.90
9730;DHT22;4904;49.152;11.004;2022-09-25T04:01:49;12.90;99.90
9730;DHT22;4904;49.152;11.004;2022-09-25T04:04:16;12.90;99.90
9730;DHT22;4904;49.152;11.004;2022-09-25T04:06:43;12.80;99.90
9730;DHT22;4904;49.152;11.004;2022-09-25T04:09:12;12.90;99.90
9730;DHT22;4904;49.152;11.004;2022-09-25T04:11:38;12.80;99.90
9730;DHT22;4904;49.152;11.004;2022-09-25T04:14:05;12.90;99.90
9730;DHT22;4904;49.152;11.004;2022-09-25T04:16:32;12.90;99.90
9730;DHT22;4904;49.152;11.004;2022-09-25T04:18:59;13.00;99.90
9730;DHT22;4904;49.152;11.004;2022-09-25T04:21:26;13.00;99.90
9730;DHT22;4904;49.152;11.004;2022-09-25T04:23:52;13.00;99.90
9730;DHT22;4904;49.152;11.004;2022-09-25T04:26:38;12.90;99.90
9730;DHT22;4904;49.152;11.004;2022-09-25T04:29:05;12.90;99.90
9730;DHT22;4904;49.152;11.004;2022-09-25T04:31:32;12.90;99.90
9730;DHT22;4904;49.152;11.004;2022-09-25T04:33:59;13.00;99.90
9730;DHT22;4904;49.152;11.004;2022-09-25T04:36:27;13.00;99.90
9730;DHT22;4904;49.152;11.004;2022-09-25T04:38:53;13.00;99.90
9730;DHT22;4904;49.152;11.004;2022-09-25T04:41:20;13.00;99.90
9730;DHT22;4904;49.152;11.004;2022-09-25T04:43:48;13.00;99.90
9730;DHT22;4904;49.152;11.004;2022-09-25T04:46:15;12.90;99.90
9730;DHT22;4904;49.152;11.004;2022-09-25T04:48:43;13.00;99.90
9730;DHT22;4904;49.152;11.004;2022-09-25T04:51:11;13.00;99.90
9730;DHT22;4904;49.152;11.004;2022-09-25T04:53:38;13.00;99.90
9730;DHT22;4904;49.152;11.004;2022-09-25T04:56:07;13.10;99.90
9730;DHT22;4904;49.152;11.004;2022-09-25T04:58:36;13.10;99.90
9730;DHT22;4904;49.152;11.004;2022-09-25T05:01:06;13.00;99.90
9730;DHT22;4904;49.152;11.004;2022-09-25T05:03:34;13.00;99.90
9730;DHT22;4904;49.152;11.004;2022-09-25T05:06:01;13.00;99.90
9730;DHT22;4904;49.152;11.004;2022-09-25T05:08:28;13.00;99.90
9730;DHT22;4904;49.152;11.004;2022-09-25T05:10:55;13.00;99.90
9730;DHT22;4904;49.152;11.004;2022-09-25T05:13:22;13.00;99.90
9730;DHT22;4904;49.152;11.004;2022-09-25T05:15:49;13.00;99.90
9730;DHT22;4904;49.152;11.004;2022-09-25T05:18:19;13.10;99.90
9730;DHT22;4904;49.152;11.004;2022-09-25T05:20:46;12.90;99.90
9730;DHT22;4904;49.152;11.004;2022-09-25T05:23:14;12.80;99.90
9730;DHT22;4904;49.152;11.004;2022-09-25T05:25:41;12.70;99.90
9730;DHT22;4904;49.152;11.004;2022-09-25T05:28:09;12.70;99.90
9730;DHT22;4904;49.152;11.004;2022-09-25T05:30:37;12.50;99.90
9730;DHT22;4904;49.152;11.004;2022-09-25T05:33:04;12.30;99.90
9730;DHT22;4904;49.152;11.004;2022-09-25T05:35:32;12.50;99.90
9730;DHT22;4904;49.152;11.004;2022-09-25T05:38:00;12.60;99.90
9730;DHT22;4904;49.152;11.004;2022-09-25T05:40:27;12.60;99.90
9730;DHT22;4904;49.152;11.004;2022-09-25T05:42:53;12.50;99.90
9730;DHT22;4904;49.152;11.004;2022-09-25T05:45:21;12.60;99.90
9730;DHT22;4904;49.152;11.004;2022-09-25T05:47:57;12.60;99.90
9730;DHT22;4904;49.152;11.004;2022-09-25T05:50:24;12.70;99.90
9730;DHT22;4904;49.152;11.004;2022-09-25T05:52:55;12.70;99.90
9730;DHT22;4904;49.152;11.004;2022-09-25T05:55:22;12.60;99.90
9730;DHT22;4904;49.152;11.004;2022-09-25T05:57:49;12.80;99.90
9730;DHT22;4904;49.152;11.004;2022-09-25T06:00:16;12.70;99.90
9730;DHT22;4904;49.152;11.004;2022-09-25T06:02:43;12.70;99.90
9730;DHT22;4904;49.152;11.004;2022-09-25T06:05:10;12.80;99.90
9730;DHT22;4904;49.152;11.004;2022-09-25T06:07:37;12.70;99.90
9730;DHT22;4904;49.152;11.004;2022-09-25T06:10:06;12.40;99.90
9730;DHT22;4904;49.152;11.004;2022-09-25T06:12:34;12.40;99.90
9730;DHT22;4904;49.152;11.004;2022-09-25T06:15:01;12.60;99.90
9730;DHT22;4904;49.152;11.004;2022-09-25T06:17:28;12.60;99.90
9730;DHT22;4904;49.152;11.004;2022-09-25T06:19:54;12.70;99.90
9730;DHT22;4904;49.152;11.004;2022-09-25T06:22:21;12.70;99.90
9730;DHT22;4904;49.152;11.004;2022-09-25T06:24:48;12.80;99.90
9730;DHT22;4904;49.152;11.004;2022-09-25T06:27:16;12.70;99.90
9730;DHT22;4904;49.152;11.004;2022-09-25T06:29:43;12.60;99.90
9730;DHT22;4904;49.152;11.004;2022-09-25T06:32:10;12.60;99.90
9730;DHT22;4904;49.152;11.004;2022-09-25T06:34:37;12.70;99.90
9730;DHT22;4904;49.152;11.004;2022-09-25T06:37:03;12.80;99.90
9730;DHT22;4904;49.152;11.004;2022-09-25T06:39:30;12.60;99.90
9730;DHT22;4904;49.152;11.004;2022-09-25T06:41:58;12.60;99.90
9730;DHT22;4904;49.152;11.004;2022-09-25T06:44:26;12.70;99.90
9730;DHT22;4904;49.152;11.004;2022-09-25T06:46:53;12.70;99.90
9730;DHT22;4904;49.152;11.004;2022-09-25T06:49:20;12.70;99.90
9730;DHT22;4904;49.152;11.004;2022-09-25T06:51:47;12.50;99.90
9730;DHT22;4904;49.152;11.004;2022-09-25T06:54:15;12.50;99.90
9730;DHT22;4904;49.152;11.004;2022-09-25T06:56:42;12.50;99.90
9730;DHT22;4904;49.152;11.004;2022-09-25T06:59:09;12.50;99.90
9730;DHT22;4904;49.152;11.004;2022-09-25T07:01:37;12.60;99.90
9730;DHT22;4904;49.152;11.004;2022-09-25T07:04:04;12.70;99.90
9730;DHT22;4904;49.152;11.004;2022-09-25T07:06:30;12.50;99.90
9730;DHT22;4904;49.152;11.004;2022-09-25T07:08:59;12.60;99.90
9730;DHT22;4904;49.152;11.004;2022-09-25T07:11:28;12.60;99.90
9730;DHT22;4904;49.152;11.004;2022-09-25T07:13:56;12.70;99.90
9730;DHT22;4904;49.152;11.004;2022-09-25T07:16:24;12.80;99.90
9730;DHT22;4904;49.152;11.004;2022-09-25T07:18:53;12.80;99.90
9730;DHT22;4904;49.152;11.004;2022-09-25T07:21:22;12.90;99.90
9730;DHT22;4904;49.152;11.004;2022-09-25T07:23:50;12.90;99.90
9730;DHT22;4904;49.152;11.004;2022-09-25T07:26:19;12.90;99.90
9730;DHT22;4904;49.152;11.004;2022-09-25T07:28:52;12.70;99.90
9730;DHT22;4904;49.152;11.004;2022-09-25T07:31:20;12.70;99.90
9730;DHT22;4904;49.152;11.004;2022-09-25T07:33:48;12.70;99.90
9730;DHT22;4904;49.152;11.004;2022-09-25T07:36:17;12.90;99.90
9730;DHT22;4904;49.152;11.004;2022-09-25T07:38:47;13.00;99.90
9730;DHT22;4904;49.152;11.004;2022-09-25T07:41:14;12.90;99.90
9730;DHT22;4904;49.152;11.004;2022-09-25T07:43:43;12.80;99.90
9730;DHT22;4904;49.152;11.004;2022-09-25T07:46:10;12.90;99.90
9730;DHT22;4904;49.152;11.004;2022-09-25T07:48:38;12.90;99.90
9730;DHT22;4904;49.152;11.004;2022-09-25T07:51:06;12.90;99.90
9730;DHT22;4904;49.152;11.004;2022-09-25T07:53:35;12.90;99.90
9730;DHT22;4904;49.152;11.004;2022-09-25T07:56:02;13.10;99.90
9730;DHT22;4904;49.152;11.004;2022-09-25T07:58:29;13.20;99.90
9730;DHT22;4904;49.152;11.004;2022-09-25T08:00:59;13.20;99.90
9730;DHT22;4904;49.152;11.004;2022-09-25T08:03:26;13.20;99.90
9730;DHT22;4904;49.152;11.004;2022-09-25T08:05:57;13.20;99.90
9730;DHT22;4904;49.152;11.004;2022-09-25T08:08:25;13.40;99.90
9730;DHT22;4904;49.152;11.004;2022-09-25T08:10:53;13.40;99.90
9730;DHT22;4904;49.152;11.004;2022-09-25T08:13:20;13.50;99.90
9730;DHT22;4904;49.152;11.004;2022-09-25T08:15:47;13.70;99.90
9730;DHT22;4904;49.152;11.004;2022-09-25T08:18:14;13.90;99.90
9730;DHT22;4904;49.152;11.004;2022-09-25T08:20:41;14.00;99.90
9730;DHT22;4904;49.152;11.004;2022-09-25T08:23:08;14.00;99.90
9730;DHT22;4904;49.152;11.004;2022-09-25T08:25:35;14.10;99.90
9730;DHT22;4904;49.152;11.004;2022-09-25T08:28:03;14.10;99.90
9730;DHT22;4904;49.152;11.004;2022-09-25T08:30:30;14.00;99.90
9730;DHT22;4904;49.152;11.004;2022-09-25T08:32:57;14.10;99.90
9730;DHT22;4904;49.152;11.004;2022-09-25T08:35:24;14.30;99.90
9730;DHT22;4904;49.152;11.004;2022-09-25T08:37:52;14.50;99.90
9730;DHT22;4904;49.152;11.004;2022-09-25T08:40:24;14.50;99.90
9730;DHT22;4904;49.152;11.004;2022-09-25T08:42:54;14.70;99.90
9730;DHT22;4904;49.152;11.004;2022-09-25T08:45:26;14.80;99.90
9730;DHT22;4904;49.152;11.004;2022-09-25T08:48:18;14.80;99.90
9730;DHT22;4904;49.152;11.004;2022-09-25T08:51:04;14.60;99.90
9730;DHT22;4904;49.152;11.004;2022-09-25T08:53:32;14.70;99.90
9730;DHT22;4904;49.152;11.004;2022-09-25T08:56:02;14.80;99.90
9730;DHT22;4904;49.152;11.004;2022-09-25T08:58:50;14.90;99.90
9730;DHT22;4904;49.152;11.004;2022-09-25T09:01:21;15.10;99.90
9730;DHT22;4904;49.152;11.004;2022-09-25T09:03:53;15.00;99.90
9730;DHT22;4904;49.152;11.004;2022-09-25T09:06:24;15.20;99.90
9730;DHT22;4904;49.152;11.004;2022-09-25T09:08:55;15.30;99.90
9730;DHT22;4904;49.152;11.004;2022-09-25T09:11:27;15.30;99.90
9730;DHT22;4904;49.152;11.004;2022-09-25T09:13:59;15.50;99.90
9730;DHT22;4904;49.152;11.004;2022-09-25T09:16:34;15.60;99.90
9730;DHT22;4904;49.152;11.004;2022-09-25T09:19:05;15.70;99.90
9730;DHT22;4904;49.152;11.004;2022-09-25T09:21:34;15.70;99.90
9730;DHT22;4904;49.152;11.004;2022-09-25T09:24:06;15.60;99.90
9730;DHT22;4904;49.152;11.004;2022-09-25T09:26:53;15.60;99.90
9730;DHT22;4904;49.152;11.004;2022-09-25T09:29:35;15.60;99.90
9730;DHT22;4904;49.152;11.004;2022-09-25T09:32:30;15.60;99.90
9730;DHT22;4904;49.152;11.004;2022-09-25T09:35:10;15.60;99.90
9730;DHT22;4904;49.152;11.004;2022-09-25T09:37:50;15.70;99.90
9730;DHT22;4904;49.152;11.004;2022-09-25T09:43:22;15.70;99.90
9730;DHT22;4904;49.152;11.004;2022-09-25T09:46:00;15.10;99.90
9730;DHT22;4904;49.152;11.004;2022-09-25T09:48:35;15.00;99.90
9730;DHT22;4904;49.152;11.004;2022-09-25T09:51:08;15.20;99.90
9730;DHT22;4904;49.152;11.004;2022-09-25T09:53:40;15.30;99.90
9730;DHT22;4904;49.152;11.004;2022-09-25T09:56:11;15.40;99.90
9730;DHT22;4904;49.152;11.004;2022-09-25T09:58:45;15.50;99.90
9730;DHT22;4904;49.152;11.004;2022-09-25T10:01:13;15.60;99.90
9730;DHT22;4904;49.152;11.004;2022-09-25T10:03:43;15.70;99.90
9730;DHT22;4904;49.152;11.004;2022-09-25T10:06:13;15.70;99.90
9730;DHT22;4904;49.152;11.004;2022-09-25T10:08:40;15.70;99.90
9730;DHT22;4904;49.152;11.004;2022-09-25T10:11:12;15.70;99.90
9730;DHT22;4904;49.152;11.004;2022-09-25T10:13:40;15.70;99.90
9730;DHT22;4904;49.152;11.004;2022-09-25T10:16:11;15.70;99.90
9730;DHT22;4904;49.152;11.004;2022-09-25T10:18:41;15.60;99.90
9730;DHT22;4904;49.152;11.004;2022-09-25T10:21:13;15.70;99.90
9730;DHT22;4904;49.152;11.004;2022-09-25T10:23:47;15.80;99.90
9730;DHT22;4904;49.152;11.004;2022-09-25T10:26:26;15.80;99.90
9730;DHT22;4904;49.152;11.004;2022-09-25T10:28:54;15.70;99.90
9730;DHT22;4904;49.152;11.004;2022-09-25T10:31:24;15.70;99.90
9730;DHT22;4904;49.152;11.004;2022-09-25T10:34:03;15.50;99.90
9730;DHT22;4904;49.152;11.004;2022-09-25T10:36:34;15.80;99.90
9730;DHT22;4904;49.152;11.004;2022-09-25T10:39:04;15.80;99.90
9730;DHT22;4904;49.152;11.004;2022-09-25T10:41:40;15.80;99.90
9730;DHT22;4904;49.152;11.004;2022-09-25T10:44:20;15.90;99.90
9730;DHT22;4904;49.152;11.004;2022-09-25T10:46:48;16.10;99.90
9730;DHT22;4904;49.152;11.004;2022-09-25T10:49:44;16.20;99.90
9730;DHT22;4904;49.152;11.004;2022-09-25T10:52:45;16.10;99.90
9730;DHT22;4904;49.152;11.004;2022-09-25T10:55:22;16.10;99.90
9730;DHT22;4904;49.152;11.004;2022-09-25T10:57:57;16.10;99.90
9730;DHT22;4904;49.152;11.004;2022-09-25T11:00:27;16.00;99.90
9730;DHT22;4904;49.152;11.004;2022-09-25T11:02:56;15.90;99.90
9730;DHT22;4904;49.152;11.004;2022-09-25T11:05:28;16.10;99.90
9730;DHT22;4904;49.152;11.004;2022-09-25T11:07:59;16.10;99.90
9730;DHT22;4904;49.152;11.004;2022-09-25T11:10:28;16.00;99.90
9730;DHT22;4904;49.152;11.004;2022-09-25T11:12:56;15.80;99.90
9730;DHT22;4904;49.152;11.004;2022-09-25T11:15:25;15.90;99.90
9730;DHT22;4904;49.152;11.004;2022-09-25T11:17:53;16.00;99.90
9730;DHT22;4904;49.152;11.004;2022-09-25T11:20:25;16.20;99.90
9730;DHT22;4904;49.152;11.004;2022-09-25T11:23:09;16.20;99.90
9730;DHT22;4904;49.152;11.004;2022-09-25T11:25:45;16.20;99.90
9730;DHT22;4904;49.152;11.004;2022-09-25T11:28:22;16.00;99.90
9730;DHT22;4904;49.152;11.004;2022-09-25T11:30:53;16.00;99.90
9730;DHT22;4904;49.152;11.004;2022-09-25T11:33:26;15.90;99.90
9730;DHT22;4904;49.152;11.004;2022-09-25T11:35:59;15.90;99.90
9730;DHT22;4904;49.152;11.004;2022-09-25T11:38:33;15.90;99.90
9730;DHT22;4904;49.152;11.004;2022-09-25T11:41:26;15.90;99.90
9730;DHT22;4904;49.152;11.004;2022-09-25T11:44:04;15.90;99.90
9730;DHT22;4904;49.152;11.004;2022-09-25T11:46:38;16.00;99.90
9730;DHT22;4904;49.152;11.004;2022-09-25T11:49:14;15.90;99.90
9730;DHT22;4904;49.152;11.004;2022-09-25T11:57:41;15.50;99.90
9730;DHT22;4904;49.152;11.004;2022-09-25T12:00:15;15.40;99.90
9730;DHT22;4904;49.152;11.004;2022-09-25T12:02:55;15.50;99.90
9730;DHT22;4904;49.152;11.004;2022-09-25T12:05:45;15.50;99.90
9730;DHT22;4904;49.152;11.004;2022-09-25T12:08:29;15.40;99.90
9730;DHT22;4904;49.152;11.004;2022-09-25T12:11:08;15.40;99.90
9730;DHT22;4904;49.152;11.004;2022-09-25T12:13:43;15.30;99.90
9730;DHT22;4904;49.152;11.004;2022-09-25T12:16:20;15.40;99.90
9730;DHT22;4904;49.152;11.004;2022-09-25T12:19:08;15.40;99.90
9730;DHT22;4904;49.152;11.004;2022-09-25T12:21:42;15.50;99.90
9730;DHT22;4904;49.152;11.004;2022-09-25T12:24:21;15.60;99.90
9730;DHT22;4904;49.152;11.004;2022-09-25T12:26:57;15.50;99.90
9730;DHT22;4904;49.152;11.004;2022-09-25T12:29:40;15.80;99.90
9730;DHT22;4904;49.152;11.004;2022-09-25T12:32:17;16.10;99.90
9730;DHT22;4904;49.152;11.004;2022-09-25T12:34:57;16.50;99.90
9730;DHT22;4904;49.152;11.004;2022-09-25T12:37:34;16.60;99.90
9730;DHT22;4904;49.152;11.004;2022-09-25T12:40:16;16.60;99.90
9730;DHT22;4904;49.152;11.004;2022-09-25T12:42:53;16.40;99.90
9730;DHT22;4904;49.152;11.004;2022-09-25T12:45:26;15.90;99.90
9730;DHT22;4904;49.152;11.004;2022-09-25T12:48:03;15.50;99.90
9730;DHT22;4904;49.152;11.004;2022-09-25T12:50:41;15.50;99.90
9730;DHT22;4904;49.152;11.004;2022-09-25T12:53:28;15.70;99.90
9730;DHT22;4904;49.152;11.004;2022-09-25T12:56:01;15.20;99.90
9730;DHT22;4904;49.152;11.004;2022-09-25T12:58:53;15.10;99.90
9730;DHT22;4904;49.152;11.004;2022-09-25T13:01:26;15.20;99.90
9730;DHT22;4904;49.152;11.004;2022-09-25T13:04:05;15.20;99.90
9730;DHT22;4904;49.152;11.004;2022-09-25T13:06:40;15.10;99.90
9730;DHT22;4904;49.152;11.004;2022-09-25T13:09:16;15.30;99.90
9730;DHT22;4904;49.152;11.004;2022-09-25T13:11:48;15.40;99.90
9730;DHT22;4904;49.152;11.004;2022-09-25T13:14:27;15.60;99.90
9730;DHT22;4904;49.152;11.004;2022-09-25T13:16:56;15.60;99.90
9730;DHT22;4904;49.152;11.004;2022-09-25T13:19:24;15.60;99.90
9730;DHT22;4904;49.152;11.004;2022-09-25T13:21:58;15.60;99.90
9730;DHT22;4904;49.152;11.004;2022-09-25T13:24:26;15.30;99.90
9730;DHT22;4904;49.152;11.004;2022-09-25T13:26:54;15.20;99.90
9730;DHT22;4904;49.152;11.004;2022-09-25T13:29:27;15.40;99.90
9730;DHT22;4904;49.152;11.004;2022-09-25T13:32:02;15.50;99.90
9730;DHT22;4904;49.152;11.004;2022-09-25T13:34:35;15.40;99.90
9730;DHT22;4904;49.152;11.004;2022-09-25T13:37:04;15.40;99.90
9730;DHT22;4904;49.152;11.004;2022-09-25T13:39:34;15.40;99.90
9730;DHT22;4904;49.152;11.004;2022-09-25T13:42:24;15.40;99.90
9730;DHT22;4904;49.152;11.004;2022-09-25T13:45:03;15.50;99.90
9730;DHT22;4904;49.152;11.004;2022-09-25T13:47:55;15.60;99.90
9730;DHT22;4904;49.152;11.004;2022-09-25T13:50:28;15.70;99.90
9730;DHT22;4904;49.152;11.004;2022-09-25T13:53:11;15.70;99.90
9730;DHT22;4904;49.152;11.004;2022-09-25T14:01:46;15.60;99.90
9730;DHT22;4904;49.152;11.004;2022-09-25T14:04:27;15.60;99.90
9730;DHT22;4904;49.152;11.004;2022-09-25T14:07:02;15.60;99.90
9730;DHT22;4904;49.152;11.004;2022-09-25T14:09:30;15.40;99.90
9730;DHT22;4904;49.152;11.004;2022-09-25T14:12:05;14.90;99.90
9730;DHT22;4904;49.152;11.004;2022-09-25T14:14:40;14.90;99.90
9730;DHT22;4904;49.152;11.004;2022-09-25T14:17:14;14.90;99.90
9730;DHT22;4904;49.152;11.004;2022-09-25T14:19:43;15.00;99.90
9730;DHT22;4904;49.152;11.004;2022-09-25T14:22:18;15.00;99.90
9730;DHT22;4904;49.152;11.004;2022-09-25T14:24:46;15.10;99.90
9730;DHT22;4904;49.152;11.004;2022-09-25T14:27:20;15.20;99.90
9730;DHT22;4904;49.152;11.004;2022-09-25T14:29:47;15.10;99.90
9730;DHT22;4904;49.152;11.004;2022-09-25T14:32:23;15.20;99.90
9730;DHT22;4904;49.152;11.004;2022-09-25T14:35:16;15.20;99.90
9730;DHT22;4904;49.152;11.004;2022-09-25T14:38:09;15.20;99.90
9730;DHT22;4904;49.152;11.004;2022-09-25T14:40:51;15.20;99.90
9730;DHT22;4904;49.152;11.004;2022-09-25T14:43:37;15.40;99.90
9730;DHT22;4904;49.152;11.004;2022-09-25T14:46:08;15.40;99.90
9730;DHT22;4904;49.152;11.004;2022-09-25T14:48:43;15.60;99.90
9730;DHT22;4904;49.152;11.004;2022-09-25T14:51:14;15.70;99.90
9730;DHT22;4904;49.152;11.004;2022-09-25T14:53:50;15.40;99.90
9730;DHT22;4904;49.152;11.004;2022-09-25T14:56:19;15.50;99.90
9730;DHT22;4904;49.152;11.004;2022-09-25T14:58:49;15.60;99.90
9730;DHT22;4904;49.152;11.004;2022-09-25T15:01:23;15.70;99.90
9730;DHT22;4904;49.152;11.004;2022-09-25T15:03:56;15.80;99.90
9730;DHT22;4904;49.152;11.004;2022-09-25T15:06:26;15.80;99.90
9730;DHT22;4904;49.152;11.004;2022-09-25T15:08:53;15.70;99.90
9730;DHT22;4904;49.152;11.004;2022-09-25T15:11:22;15.80;99.90
9730;DHT22;4904;49.152;11.004;2022-09-25T15:13:51;15.90;99.90
9730;DHT22;4904;49.152;11.004;2022-09-25T15:16:21;15.90;99.90
9730;DHT22;4904;49.152;11.004;2022-09-25T15:19:13;16.00;99.90
9730;DHT22;4904;49.152;11.004;2022-09-25T15:21:42;16.10;99.90
9730;DHT22;4904;49.152;11.004;2022-09-25T15:24:13;16.10;99.90
9730;DHT22;4904;49.152;11.004;2022-09-25T15:26:45;16.10;99.90
9730;DHT22;4904;49.152;11.004;2022-09-25T15:29:15;16.10;99.90
9730;DHT22;4904;49.152;11.004;2022-09-25T15:31:44;16.20;99.90
9730;DHT22;4904;49.152;11.004;2022-09-25T15:34:19;16.10;99.90
9730;DHT22;4904;49.152;11.004;2022-09-25T15:36:47;16.10;99.90
9730;DHT22;4904;49.152;11.004;2022-09-25T15:39:16;16.10;99.90
9730;DHT22;4904;49.152;11.004;2022-09-25T15:41:44;16.00;99.90
9730;DHT22;4904;49.152;11.004;2022-09-25T15:44:16;16.00;99.90
9730;DHT22;4904;49.152;11.004;2022-09-25T15:46:45;16.10;99.90
9730;DHT22;4904;49.152;11.004;2022-09-25T15:49:17;16.00;99.90
9730;DHT22;4904;49.152;11.004;2022-09-25T15:51:49;16.10;99.90
9730;DHT22;4904;49.152;11.004;2022-09-25T15:54:32;16.20;99.90
9730;DHT22;4904;49.152;11.004;2022-09-25T15:57:00;16.40;99.90
9730;DHT22;4904;49.152;11.004;2022-09-25T15:59:31;16.50;99.90
9730;DHT22;4904;49.152;11.004;2022-09-25T16:01:59;16.40;99.90
9730;DHT22;4904;49.152;11.004;2022-09-25T16:04:53;16.30;99.90
9730;DHT22;4904;49.152;11.004;2022-09-25T16:07:24;16.20;99.90
9730;DHT22;4904;49.152;11.004;2022-09-25T16:09:53;16.20;99.90
9730;DHT22;4904;49.152;11.004;2022-09-25T16:12:22;16.10;99.90
9730;DHT22;4904;49.152;11.004;2022-09-25T16:14:54;16.00;99.90
9730;DHT22;4904;49.152;11.004;2022-09-25T16:17:23;15.90;99.90
9730;DHT22;4904;49.152;11.004;2022-09-25T16:20:04;15.80;99.90
9730;DHT22;4904;49.152;11.004;2022-09-25T16:22:37;15.60;99.90
9730;DHT22;4904;49.152;11.004;2022-09-25T16:25:14;15.60;99.90
9730;DHT22;4904;49.152;11.004;2022-09-25T16:27:44;15.50;99.90
9730;DHT22;4904;49.152;11.004;2022-09-25T16:30:15;15.50;99.90